Current | Forecast
Updated: 7:00 AM -03 on September 21, 2017
Observed at Rio de Janeiro, Brazil
Temperature 23°C
Humidity 73%
Dew Point 18°C
Wind NNW at 9 km/h
Pressure 1021 hPa (Steady)
Conditions Clear
Visibility -
UV N/A
Clouds
Yesterday's Maximum 28°C
Yesterday's Minimum 19°C approx.
Yesterday's Cooling Degree Days 9 approx.
Sunrise5:43 AM -03
Sunset5:48 PM -03
Moon Rise6:42 AM -03
Moon Set7:13 PM -03
Moon PhaseMoon Phase
New Moon
Raw METARMETAR SBRJ 211000Z 33005KT CAVOK 23/18 Q1021


Monday
. High: 84° F.
Tuesday
. High: 77° F.
Wednesday
. High: 75° F.
Thursday
. High: 73° F.
Friday
. High: 73° F.
Saturday
. High: 75° F.
Sunday
. High: 80° F.
Monday
. High: 75° F.

Units: English | Metric

Find the Weather for any City, State or Zipcode, or Country:

U.S. State List | Severe Weather | Tropical Storms | Ski Conditions
United States | Canada | Central America | South America | Asia | Europe | Australia | Africa | Islands

Weather Underground

© Copyright 2017
The Weather Company, LLC